RYR906U EGCC-EDDK
Flight info
| Callsign | RYR906U |
|---|---|
| Flight time | 1h 10m |
| Altitude | 35000 |
| Route | LISTO L612 HON L15 BIG UL9 KONAN DCT KOK UL607 SPI T857 DENOV T861 ERUKI T856 DEPOK |
| Aircraft | B738/M-SDE2E3FGHIRWXY/LB1 |
Departure
| Time | 2026-04-22 21:41 |
|---|---|
| Airport | Manchester Airport (EGCC) |
Arrival
| Time | 2026-04-22 22:52 |
|---|---|
| Airport | Cologne Bonn Airport (EDDK) |
| Time | Latitude | Longitude | Altitude | Speed | Heading |
|---|---|---|---|---|---|
| 2026-04-22 20:35 | 53.36118 | -2.26745 | 254 ft | 0 kts | 316° |
| 2026-04-22 21:29 | 53.36113 | -2.26736 | 254 ft | 4 kts | 313° |
| 2026-04-22 21:29 | 53.36096 | -2.26701 | 254 ft | 4 kts | 297° |
| 2026-04-22 21:29 | 53.36087 | -2.26660 | 254 ft | 4 kts | 277° |
| 2026-04-22 21:29 | 53.36088 | -2.26615 | 254 ft | 4 kts | 255° |
| 2026-04-22 21:30 | 53.36098 | -2.26575 | 254 ft | 4 kts | 237° |
| 2026-04-22 21:30 | 53.36114 | -2.26538 | 254 ft | 4 kts | 229° |
| 2026-04-22 21:30 | 53.36121 | -2.26524 | 254 ft | 0 kts | 231° |
| 2026-04-22 21:34 | 53.36119 | -2.26528 | 254 ft | 2 kts | 231° |
| 2026-04-22 21:34 | 53.36111 | -2.26544 | 254 ft | 2 kts | 230° |
| 2026-04-22 21:35 | 53.36096 | -2.26573 | 254 ft | 6 kts | 226° |
| 2026-04-22 21:35 | 53.36038 | -2.26583 | 254 ft | 10 kts | 181° |
| 2026-04-22 21:35 | 53.35982 | -2.26646 | 255 ft | 11 kts | 227° |
| 2026-04-22 21:35 | 53.35915 | -2.26793 | 255 ft | 21 kts | 236° |
| 2026-04-22 21:36 | 53.35821 | -2.27023 | 254 ft | 19 kts | 239° |
| 2026-04-22 21:36 | 53.35746 | -2.27195 | 254 ft | 18 kts | 231° |
| 2026-04-22 21:36 | 53.35667 | -2.27353 | 253 ft | 18 kts | 232° |
| 2026-04-22 21:36 | 53.35577 | -2.27542 | 243 ft | 21 kts | 230° |
| 2026-04-22 21:37 | 53.35494 | -2.27711 | 238 ft | 17 kts | 231° |
| 2026-04-22 21:37 | 53.35460 | -2.27822 | 239 ft | 8 kts | 263° |
| 2026-04-22 21:37 | 53.35450 | -2.27912 | 237 ft | 8 kts | 247° |
| 2026-04-22 21:37 | 53.35405 | -2.28003 | 240 ft | 13 kts | 226° |
| 2026-04-22 21:38 | 53.35317 | -2.28145 | 234 ft | 22 kts | 225° |
| 2026-04-22 21:38 | 53.35196 | -2.28373 | 229 ft | 28 kts | 231° |
| 2026-04-22 21:38 | 53.35070 | -2.28637 | 229 ft | 28 kts | 229° |
| 2026-04-22 21:38 | 53.34940 | -2.28870 | 225 ft | 26 kts | 225° |
| 2026-04-22 21:39 | 53.34831 | -2.29066 | 217 ft | 15 kts | 229° |
| 2026-04-22 21:39 | 53.34784 | -2.29158 | 218 ft | 10 kts | 230° |
| 2026-04-22 21:39 | 53.34740 | -2.29249 | 220 ft | 12 kts | 233° |
| 2026-04-22 21:39 | 53.34689 | -2.29320 | 215 ft | 7 kts | 205° |
| 2026-04-22 21:40 | 53.34640 | -2.29340 | 220 ft | 7 kts | 186° |
| 2026-04-22 21:40 | 53.34588 | -2.29331 | 212 ft | 10 kts | 163° |
| 2026-04-22 21:40 | 53.34546 | -2.29216 | 213 ft | 17 kts | 65° |
| 2026-04-22 21:40 | 53.34693 | -2.28905 | 223 ft | 63 kts | 51° |
| 2026-04-22 21:41 | 53.35101 | -2.28063 | 232 ft | 122 kts | 51° |
| 2026-04-22 21:41 | 53.35731 | -2.26747 | 388 ft | 156 kts | 51° |
| 2026-04-22 21:41 | 53.36413 | -2.25364 | 1122 ft | 154 kts | 51° |
| 2026-04-22 21:41 | 53.37112 | -2.24005 | 1910 ft | 152 kts | 56° |
| 2026-04-22 21:42 | 53.37604 | -2.22511 | 2587 ft | 143 kts | 87° |
| 2026-04-22 21:42 | 53.37481 | -2.20878 | 3093 ft | 146 kts | 114° |
| 2026-04-22 21:42 | 53.36948 | -2.19386 | 3578 ft | 159 kts | 135° |
| 2026-04-22 21:42 | 53.35965 | -2.18219 | 3825 ft | 185 kts | 145° |
| 2026-04-22 21:43 | 53.34800 | -2.17073 | 3980 ft | 209 kts | 160° |
| 2026-04-22 21:43 | 53.33279 | -2.16858 | 4276 ft | 230 kts | 179° |
| 2026-04-22 21:43 | 53.31621 | -2.17090 | 4503 ft | 248 kts | 182° |
| 2026-04-22 21:43 | 53.29885 | -2.17387 | 4755 ft | 251 kts | 183° |
| 2026-04-22 21:44 | 53.28136 | -2.17685 | 4993 ft | 251 kts | 183° |
| 2026-04-22 21:44 | 53.26395 | -2.17981 | 4989 ft | 251 kts | 182° |
| 2026-04-22 21:44 | 53.24665 | -2.18263 | 4998 ft | 252 kts | 182° |
| 2026-04-22 21:44 | 53.22912 | -2.18543 | 5010 ft | 253 kts | 182° |
| 2026-04-22 21:45 | 53.21152 | -2.18822 | 5006 ft | 254 kts | 182° |
| 2026-04-22 21:45 | 53.19408 | -2.19097 | 5004 ft | 254 kts | 182° |
| 2026-04-22 21:45 | 53.17647 | -2.19374 | 5009 ft | 254 kts | 182° |
| 2026-04-22 21:45 | 53.15896 | -2.19649 | 5009 ft | 254 kts | 182° |
| 2026-04-22 21:46 | 53.14121 | -2.19677 | 4990 ft | 252 kts | 165° |
| 2026-04-22 21:46 | 53.12503 | -2.18654 | 5312 ft | 254 kts | 156° |
| 2026-04-22 21:46 | 53.10861 | -2.17506 | 6116 ft | 256 kts | 156° |
| 2026-04-22 21:46 | 53.09208 | -2.16356 | 6915 ft | 258 kts | 156° |
| 2026-04-22 21:47 | 53.07557 | -2.15210 | 7636 ft | 261 kts | 156° |
| 2026-04-22 21:47 | 53.05880 | -2.14048 | 8423 ft | 262 kts | 156° |
| 2026-04-22 21:47 | 53.04174 | -2.12868 | 9119 ft | 267 kts | 156° |
| 2026-04-22 21:47 | 53.02461 | -2.11684 | 9856 ft | 269 kts | 156° |
| 2026-04-22 21:48 | 53.00713 | -2.10477 | 10576 ft | 272 kts | 156° |
| 2026-04-22 21:48 | 52.98906 | -2.09231 | 10857 ft | 292 kts | 156° |
| 2026-04-22 21:48 | 52.96982 | -2.07905 | 11063 ft | 312 kts | 157° |
| 2026-04-22 21:48 | 52.94922 | -2.06489 | 11535 ft | 322 kts | 157° |
| 2026-04-22 21:49 | 52.92862 | -2.05076 | 12285 ft | 321 kts | 157° |
| 2026-04-22 21:49 | 52.90790 | -2.03656 | 13115 ft | 322 kts | 157° |
| 2026-04-22 21:49 | 52.88705 | -2.02227 | 13856 ft | 326 kts | 157° |
| 2026-04-22 21:49 | 52.86582 | -2.00774 | 14429 ft | 334 kts | 157° |
| 2026-04-22 21:50 | 52.84440 | -1.99309 | 14987 ft | 340 kts | 157° |
| 2026-04-22 21:50 | 52.82229 | -1.97799 | 15674 ft | 343 kts | 157° |
| 2026-04-22 21:50 | 52.80032 | -1.96299 | 16405 ft | 344 kts | 157° |
| 2026-04-22 21:50 | 52.77804 | -1.94780 | 17117 ft | 348 kts | 156° |
| 2026-04-22 21:51 | 52.75539 | -1.93237 | 17725 ft | 353 kts | 156° |
| 2026-04-22 21:51 | 52.73256 | -1.91683 | 18163 ft | 364 kts | 156° |
| 2026-04-22 21:51 | 52.70886 | -1.90072 | 18701 ft | 370 kts | 156° |
| 2026-04-22 21:52 | 52.66044 | -1.86789 | 19798 ft | 378 kts | 156° |
| 2026-04-22 21:52 | 52.63620 | -1.85148 | 20341 ft | 382 kts | 156° |
| 2026-04-22 21:52 | 52.61131 | -1.83465 | 20828 ft | 388 kts | 157° |
| 2026-04-22 21:52 | 52.58651 | -1.81792 | 21351 ft | 392 kts | 156° |
| 2026-04-22 21:53 | 52.56110 | -1.80078 | 21895 ft | 395 kts | 157° |
| 2026-04-22 21:53 | 52.53553 | -1.78356 | 22426 ft | 399 kts | 156° |
| 2026-04-22 21:53 | 52.50959 | -1.76611 | 22885 ft | 404 kts | 157° |
| 2026-04-22 21:53 | 52.48370 | -1.74871 | 23393 ft | 407 kts | 157° |
| 2026-04-22 21:54 | 52.45730 | -1.73101 | 23851 ft | 413 kts | 157° |
| 2026-04-22 21:54 | 52.43052 | -1.71306 | 24277 ft | 416 kts | 157° |
| 2026-04-22 21:54 | 52.40381 | -1.69518 | 24644 ft | 421 kts | 157° |
| 2026-04-22 21:54 | 52.37664 | -1.67615 | 25094 ft | 422 kts | 152° |
| 2026-04-22 21:55 | 52.35185 | -1.65128 | 25666 ft | 420 kts | 143° |
| 2026-04-22 21:55 | 52.32979 | -1.62026 | 26016 ft | 425 kts | 134° |
| 2026-04-22 21:55 | 52.30902 | -1.58464 | 26221 ft | 433 kts | 133° |
| 2026-04-22 21:55 | 52.28850 | -1.54879 | 26587 ft | 437 kts | 133° |
| 2026-04-22 21:56 | 52.26774 | -1.51258 | 27102 ft | 436 kts | 133° |
| 2026-04-22 21:56 | 52.24669 | -1.47615 | 27596 ft | 436 kts | 133° |
| 2026-04-22 21:56 | 52.22579 | -1.44029 | 27796 ft | 444 kts | 133° |
| 2026-04-22 21:56 | 52.20414 | -1.40341 | 28068 ft | 449 kts | 133° |
| 2026-04-22 21:57 | 52.18268 | -1.36700 | 28453 ft | 451 kts | 133° |
| 2026-04-22 21:57 | 52.16082 | -1.33001 | 28852 ft | 453 kts | 133° |
| 2026-04-22 21:57 | 52.13885 | -1.29290 | 29187 ft | 456 kts | 133° |
| 2026-04-22 21:57 | 52.11695 | -1.25593 | 29497 ft | 459 kts | 134° |
| 2026-04-22 21:58 | 52.09457 | -1.21822 | 29812 ft | 462 kts | 134° |
| 2026-04-22 21:58 | 52.07232 | -1.18076 | 30119 ft | 465 kts | 134° |
| 2026-04-22 21:58 | 52.04964 | -1.14264 | 30423 ft | 467 kts | 134° |
| 2026-04-22 21:58 | 52.02693 | -1.10453 | 30736 ft | 467 kts | 134° |
| 2026-04-22 21:59 | 52.00466 | -1.06732 | 31196 ft | 464 kts | 134° |
| 2026-04-22 21:59 | 51.98198 | -1.02950 | 31583 ft | 464 kts | 133° |
| 2026-04-22 21:59 | 51.95973 | -0.99237 | 31868 ft | 465 kts | 133° |
| 2026-04-22 21:59 | 51.93702 | -0.95449 | 32140 ft | 467 kts | 133° |
| 2026-04-22 22:00 | 51.91416 | -0.91639 | 32270 ft | 472 kts | 133° |
| 2026-04-22 22:00 | 51.89138 | -0.87850 | 32569 ft | 473 kts | 133° |
| 2026-04-22 22:00 | 51.86842 | -0.84039 | 33027 ft | 470 kts | 133° |
| 2026-04-22 22:00 | 51.84558 | -0.80254 | 33491 ft | 467 kts | 132° |
| 2026-04-22 22:01 | 51.82290 | -0.76499 | 33861 ft | 466 kts | 132° |
| 2026-04-22 22:01 | 51.80013 | -0.72735 | 34152 ft | 466 kts | 133° |
| 2026-04-22 22:01 | 51.77847 | -0.68902 | 34412 ft | 466 kts | 125° |
| 2026-04-22 22:01 | 51.76056 | -0.64544 | 34684 ft | 462 kts | 116° |
| 2026-04-22 22:02 | 51.74673 | -0.59929 | 34918 ft | 459 kts | 107° |
| 2026-04-22 22:02 | 51.73691 | -0.55034 | 35225 ft | 456 kts | 103° |
| 2026-04-22 22:02 | 51.72797 | -0.50098 | 35457 ft | 455 kts | 103° |
| 2026-04-22 22:03 | 51.71058 | -0.40296 | 35485 ft | 456 kts | 103° |
| 2026-04-22 22:03 | 51.69275 | -0.30502 | 35482 ft | 453 kts | 103° |
| 2026-04-22 22:04 | 51.67470 | -0.20825 | 35477 ft | 451 kts | 104° |
| 2026-04-22 22:04 | 51.65645 | -0.11155 | 35480 ft | 450 kts | 104° |
| 2026-04-22 22:05 | 51.63821 | -0.01544 | 35468 ft | 449 kts | 104° |
| 2026-04-22 22:05 | 51.61991 | 0.08057 | 35400 ft | 450 kts | 103° |
| 2026-04-22 22:06 | 51.60153 | 0.17655 | 35401 ft | 451 kts | 103° |
| 2026-04-22 22:06 | 51.58291 | 0.27323 | 35399 ft | 451 kts | 103° |
| 2026-04-22 22:07 | 51.56429 | 0.36947 | 35392 ft | 452 kts | 104° |
| 2026-04-22 22:07 | 51.54545 | 0.46638 | 35401 ft | 453 kts | 104° |
| 2026-04-22 22:08 | 51.52656 | 0.56305 | 35411 ft | 454 kts | 104° |
| 2026-04-22 22:08 | 51.50760 | 0.65958 | 35406 ft | 455 kts | 104° |
| 2026-04-22 22:09 | 51.48844 | 0.75657 | 35400 ft | 456 kts | 104° |
| 2026-04-22 22:09 | 51.46911 | 0.85399 | 35399 ft | 457 kts | 104° |
| 2026-04-22 22:10 | 51.44977 | 0.95096 | 35380 ft | 457 kts | 104° |
| 2026-04-22 22:10 | 51.43028 | 1.04820 | 35386 ft | 458 kts | 104° |
| 2026-04-22 22:11 | 51.41072 | 1.14530 | 35384 ft | 459 kts | 104° |
| 2026-04-22 22:11 | 51.39096 | 1.24290 | 35376 ft | 459 kts | 104° |
| 2026-04-22 22:12 | 51.37114 | 1.34035 | 35379 ft | 460 kts | 104° |
| 2026-04-22 22:12 | 51.35130 | 1.43736 | 35393 ft | 460 kts | 103° |
| 2026-04-22 22:13 | 51.33137 | 1.53437 | 35384 ft | 460 kts | 104° |
| 2026-04-22 22:13 | 51.31127 | 1.63173 | 35363 ft | 460 kts | 104° |
| 2026-04-22 22:14 | 51.29123 | 1.72834 | 35376 ft | 459 kts | 104° |
| 2026-04-22 22:14 | 51.27099 | 1.82540 | 35374 ft | 459 kts | 104° |
| 2026-04-22 22:15 | 51.25081 | 1.92174 | 35402 ft | 459 kts | 104° |
| 2026-04-22 22:15 | 51.23041 | 2.01869 | 35373 ft | 459 kts | 104° |
| 2026-04-22 22:16 | 51.21014 | 2.11451 | 35363 ft | 458 kts | 104° |
| 2026-04-22 22:16 | 51.18969 | 2.21074 | 35369 ft | 457 kts | 104° |
| 2026-04-22 22:17 | 51.16919 | 2.30673 | 35373 ft | 456 kts | 104° |
| 2026-04-22 22:17 | 51.14876 | 2.40196 | 35404 ft | 455 kts | 105° |
| 2026-04-22 22:18 | 51.12827 | 2.49704 | 35382 ft | 454 kts | 105° |
| 2026-04-22 22:18 | 51.11119 | 2.57599 | 35366 ft | 453 kts | 105° |
| 2026-04-22 22:19 | 51.09080 | 2.67100 | 35376 ft | 451 kts | 103° |
| 2026-04-22 22:19 | 51.07320 | 2.76652 | 35375 ft | 448 kts | 101° |
| 2026-04-22 22:20 | 51.05375 | 2.87703 | 35396 ft | 447 kts | 102° |
| 2026-04-22 22:20 | 51.03947 | 2.95641 | 35374 ft | 447 kts | 102° |
| 2026-04-22 22:21 | 51.02210 | 3.05136 | 35372 ft | 446 kts | 102° |
| 2026-04-22 22:21 | 51.00472 | 3.14553 | 35384 ft | 446 kts | 103° |
| 2026-04-22 22:22 | 50.98717 | 3.24019 | 35363 ft | 446 kts | 103° |
| 2026-04-22 22:22 | 50.96969 | 3.33404 | 35380 ft | 446 kts | 103° |
| 2026-04-22 22:23 | 50.95198 | 3.42862 | 35367 ft | 446 kts | 103° |
| 2026-04-22 22:23 | 50.93432 | 3.52249 | 35362 ft | 446 kts | 103° |
| 2026-04-22 22:24 | 50.91652 | 3.61667 | 35359 ft | 445 kts | 103° |
| 2026-04-22 22:24 | 50.89867 | 3.71018 | 35362 ft | 445 kts | 103° |
| 2026-04-22 22:25 | 50.88062 | 3.80360 | 35379 ft | 445 kts | 104° |
| 2026-04-22 22:25 | 50.86239 | 3.89752 | 35363 ft | 444 kts | 104° |
| 2026-04-22 22:26 | 50.84423 | 3.99066 | 35359 ft | 443 kts | 104° |
| 2026-04-22 22:26 | 50.82613 | 4.08312 | 35365 ft | 441 kts | 104° |
| 2026-04-22 22:27 | 50.80792 | 4.17566 | 35367 ft | 440 kts | 104° |
| 2026-04-22 22:27 | 50.78975 | 4.26755 | 35370 ft | 439 kts | 104° |
| 2026-04-22 22:28 | 50.77140 | 4.35996 | 35378 ft | 439 kts | 104° |
| 2026-04-22 22:28 | 50.75315 | 4.45133 | 35359 ft | 431 kts | 104° |
| 2026-04-22 22:28 | 50.74415 | 4.49620 | 35077 ft | 426 kts | 104° |
| 2026-04-22 22:29 | 50.73526 | 4.54052 | 34809 ft | 419 kts | 104° |
| 2026-04-22 22:29 | 50.72655 | 4.58382 | 34447 ft | 417 kts | 104° |
| 2026-04-22 22:29 | 50.71785 | 4.62746 | 34049 ft | 414 kts | 103° |
| 2026-04-22 22:29 | 50.70943 | 4.67085 | 33671 ft | 411 kts | 103° |
| 2026-04-22 22:30 | 50.70122 | 4.71349 | 33285 ft | 408 kts | 103° |
| 2026-04-22 22:30 | 50.69300 | 4.75614 | 32917 ft | 405 kts | 103° |
| 2026-04-22 22:30 | 50.68477 | 4.79863 | 32531 ft | 402 kts | 103° |
| 2026-04-22 22:30 | 50.67671 | 4.84009 | 32167 ft | 399 kts | 103° |
| 2026-04-22 22:31 | 50.66851 | 4.88203 | 31803 ft | 396 kts | 103° |
| 2026-04-22 22:31 | 50.66046 | 4.92306 | 31446 ft | 394 kts | 103° |
| 2026-04-22 22:31 | 50.65216 | 4.96420 | 31095 ft | 392 kts | 103° |
| 2026-04-22 22:31 | 50.64383 | 5.00474 | 30746 ft | 390 kts | 103° |
| 2026-04-22 22:32 | 50.63545 | 5.04529 | 30386 ft | 387 kts | 103° |
| 2026-04-22 22:32 | 50.62709 | 5.08570 | 29966 ft | 385 kts | 103° |
| 2026-04-22 22:32 | 50.61889 | 5.12531 | 29582 ft | 382 kts | 103° |
| 2026-04-22 22:32 | 50.61068 | 5.16497 | 29233 ft | 378 kts | 104° |
| 2026-04-22 22:33 | 50.60254 | 5.20425 | 28859 ft | 374 kts | 104° |
| 2026-04-22 22:33 | 50.59449 | 5.24304 | 28493 ft | 371 kts | 104° |
| 2026-04-22 22:33 | 50.58657 | 5.28113 | 28144 ft | 367 kts | 104° |
| 2026-04-22 22:33 | 50.57861 | 5.31937 | 27775 ft | 364 kts | 104° |
| 2026-04-22 22:34 | 50.57083 | 5.35669 | 27420 ft | 361 kts | 104° |
| 2026-04-22 22:34 | 50.56300 | 5.39415 | 27076 ft | 358 kts | 104° |
| 2026-04-22 22:34 | 50.55522 | 5.43133 | 26728 ft | 356 kts | 104° |
| 2026-04-22 22:34 | 50.54749 | 5.46818 | 26384 ft | 353 kts | 104° |
| 2026-04-22 22:35 | 50.53989 | 5.50438 | 26046 ft | 351 kts | 104° |
| 2026-04-22 22:35 | 50.53221 | 5.54088 | 25706 ft | 348 kts | 104° |
| 2026-04-22 22:35 | 50.52460 | 5.57703 | 25383 ft | 346 kts | 104° |
| 2026-04-22 22:35 | 50.52001 | 5.61364 | 25034 ft | 339 kts | 89° |
| 2026-04-22 22:36 | 50.52103 | 5.64989 | 24712 ft | 334 kts | 78° |
| 2026-04-22 22:36 | 50.52692 | 5.68520 | 24382 ft | 330 kts | 70° |
| 2026-04-22 22:36 | 50.53413 | 5.71897 | 24043 ft | 329 kts | 69° |
| 2026-04-22 22:36 | 50.54155 | 5.75295 | 23668 ft | 327 kts | 69° |
| 2026-04-22 22:37 | 50.54889 | 5.78676 | 23296 ft | 325 kts | 69° |
| 2026-04-22 22:37 | 50.55613 | 5.82050 | 22947 ft | 323 kts | 69° |
| 2026-04-22 22:37 | 50.56313 | 5.85344 | 22621 ft | 319 kts | 69° |
| 2026-04-22 22:37 | 50.57015 | 5.88675 | 22300 ft | 317 kts | 69° |
| 2026-04-22 22:38 | 50.57696 | 5.91920 | 21981 ft | 315 kts | 69° |
| 2026-04-22 22:38 | 50.58382 | 5.95196 | 21657 ft | 312 kts | 69° |
| 2026-04-22 22:38 | 50.59299 | 5.98237 | 21234 ft | 310 kts | 56° |
| 2026-04-22 22:38 | 50.60597 | 6.01075 | 20213 ft | 328 kts | 51° |
| 2026-04-22 22:39 | 50.62037 | 6.04014 | 19325 ft | 343 kts | 51° |
| 2026-04-22 22:39 | 50.63493 | 6.06959 | 18868 ft | 343 kts | 51° |
| 2026-04-22 22:39 | 50.64959 | 6.09937 | 18366 ft | 343 kts | 51° |
| 2026-04-22 22:39 | 50.66412 | 6.12903 | 17435 ft | 351 kts | 51° |
| 2026-04-22 22:40 | 50.67940 | 6.16039 | 16226 ft | 368 kts | 52° |
| 2026-04-22 22:40 | 50.69523 | 6.19308 | 15107 ft | 380 kts | 52° |
| 2026-04-22 22:40 | 50.71136 | 6.22653 | 14312 ft | 383 kts | 52° |
| 2026-04-22 22:40 | 50.72728 | 6.25963 | 13644 ft | 379 kts | 52° |
| 2026-04-22 22:41 | 50.74315 | 6.29267 | 13034 ft | 375 kts | 52° |
| 2026-04-22 22:41 | 50.75853 | 6.32474 | 12743 ft | 360 kts | 52° |
| 2026-04-22 22:41 | 50.77341 | 6.35577 | 11929 ft | 354 kts | 52° |
| 2026-04-22 22:41 | 50.78831 | 6.38687 | 10964 ft | 355 kts | 52° |
| 2026-04-22 22:42 | 50.80274 | 6.41706 | 10681 ft | 335 kts | 52° |
| 2026-04-22 22:42 | 50.81639 | 6.44561 | 10534 ft | 314 kts | 52° |
| 2026-04-22 22:42 | 50.82916 | 6.47236 | 10397 ft | 295 kts | 52° |
| 2026-04-22 22:42 | 50.84119 | 6.49758 | 10274 ft | 277 kts | 52° |
| 2026-04-22 22:43 | 50.85240 | 6.52109 | 10103 ft | 264 kts | 52° |
| 2026-04-22 22:43 | 50.86328 | 6.54395 | 9698 ft | 260 kts | 52° |
| 2026-04-22 22:43 | 50.87418 | 6.56685 | 9228 ft | 259 kts | 52° |
| 2026-04-22 22:43 | 50.88500 | 6.58962 | 8772 ft | 258 kts | 52° |
| 2026-04-22 22:44 | 50.89574 | 6.61225 | 8376 ft | 260 kts | 52° |
| 2026-04-22 22:44 | 50.90677 | 6.63550 | 7905 ft | 266 kts | 52° |
| 2026-04-22 22:44 | 50.91796 | 6.65913 | 7471 ft | 269 kts | 52° |
| 2026-04-22 22:44 | 50.92911 | 6.68269 | 6900 ft | 271 kts | 52° |
| 2026-04-22 22:45 | 50.94054 | 6.70688 | 6307 ft | 272 kts | 53° |
| 2026-04-22 22:45 | 50.95178 | 6.73068 | 5822 ft | 269 kts | 53° |
| 2026-04-22 22:45 | 50.96299 | 6.75446 | 5365 ft | 266 kts | 53° |
| 2026-04-22 22:45 | 50.97391 | 6.77763 | 4903 ft | 263 kts | 53° |
| 2026-04-22 22:46 | 50.98489 | 6.80093 | 4432 ft | 261 kts | 53° |
| 2026-04-22 22:46 | 50.99561 | 6.82370 | 4043 ft | 256 kts | 53° |
| 2026-04-22 22:46 | 51.00604 | 6.84586 | 3796 ft | 247 kts | 53° |
| 2026-04-22 22:46 | 51.01615 | 6.86735 | 3703 ft | 232 kts | 53° |
| 2026-04-22 22:47 | 51.02458 | 6.88838 | 3678 ft | 228 kts | 72° |
| 2026-04-22 22:47 | 51.02446 | 6.91282 | 3663 ft | 222 kts | 112° |
| 2026-04-22 22:47 | 51.01570 | 6.93222 | 3646 ft | 211 kts | 134° |
| 2026-04-22 22:47 | 51.00544 | 6.94791 | 3563 ft | 199 kts | 136° |
| 2026-04-22 22:48 | 50.99522 | 6.96278 | 3314 ft | 197 kts | 136° |
| 2026-04-22 22:48 | 50.98509 | 6.97741 | 3050 ft | 194 kts | 136° |
| 2026-04-22 22:48 | 50.97528 | 6.99161 | 2810 ft | 191 kts | 136° |
| 2026-04-22 22:48 | 50.96565 | 7.00555 | 2555 ft | 187 kts | 136° |
| 2026-04-22 22:49 | 50.95605 | 7.01945 | 2291 ft | 183 kts | 135° |
| 2026-04-22 22:49 | 50.94691 | 7.03269 | 2043 ft | 174 kts | 135° |
| 2026-04-22 22:49 | 50.93826 | 7.04522 | 1810 ft | 162 kts | 135° |
| 2026-04-22 22:49 | 50.93039 | 7.05664 | 1610 ft | 148 kts | 135° |
| 2026-04-22 22:50 | 50.92296 | 7.06742 | 1409 ft | 143 kts | 135° |
| 2026-04-22 22:50 | 50.91553 | 7.07822 | 1212 ft | 150 kts | 135° |
| 2026-04-22 22:50 | 50.90763 | 7.08966 | 1036 ft | 156 kts | 135° |
| 2026-04-22 22:50 | 50.89962 | 7.10120 | 823 ft | 155 kts | 137° |
| 2026-04-22 22:51 | 50.89171 | 7.11267 | 583 ft | 153 kts | 137° |
| 2026-04-22 22:51 | 50.88395 | 7.12405 | 370 ft | 152 kts | 137° |
| 2026-04-22 22:51 | 50.87630 | 7.13506 | 248 ft | 141 kts | 135° |
| 2026-04-22 22:51 | 50.87033 | 7.14376 | 256 ft | 86 kts | 138° |
| 2026-04-22 22:52 | 50.86712 | 7.14843 | 257 ft | 53 kts | 137° |
| 2026-04-22 22:52 | 50.86469 | 7.15184 | 267 ft | 40 kts | 145° |
| 2026-04-22 22:52 | 50.86233 | 7.15332 | 274 ft | 30 kts | 167° |
| 2026-04-22 22:52 | 50.86111 | 7.15350 | 275 ft | 8 kts | 199° |
| 2026-04-22 22:53 | 50.86069 | 7.15303 | 275 ft | 7 kts | 225° |
| 2026-04-22 22:53 | 50.86047 | 7.15232 | 275 ft | 7 kts | 256° |
| 2026-04-22 22:53 | 50.86051 | 7.15156 | 278 ft | 7 kts | 287° |
| 2026-04-22 22:53 | 50.86087 | 7.15074 | 274 ft | 13 kts | 314° |
| 2026-04-22 22:54 | 50.86182 | 7.14936 | 270 ft | 23 kts | 317° |
| 2026-04-22 22:54 | 50.86317 | 7.14739 | 265 ft | 29 kts | 318° |
| 2026-04-22 22:54 | 50.86467 | 7.14524 | 259 ft | 28 kts | 317° |
| 2026-04-22 22:54 | 50.86608 | 7.14319 | 256 ft | 27 kts | 317° |
| 2026-04-22 22:55 | 50.86735 | 7.14146 | 251 ft | 20 kts | 334° |
| 2026-04-22 22:55 | 50.86834 | 7.14056 | 246 ft | 15 kts | 315° |
| 2026-04-22 22:55 | 50.86999 | 7.13815 | 242 ft | 15 kts | 318° |
| 2026-04-22 22:56 | 50.87078 | 7.13702 | 240 ft | 15 kts | 317° |
| 2026-04-22 22:56 | 50.87157 | 7.13585 | 238 ft | 16 kts | 317° |
| 2026-04-22 22:56 | 50.87238 | 7.13470 | 237 ft | 16 kts | 317° |
| 2026-04-22 22:56 | 50.87317 | 7.13355 | 233 ft | 15 kts | 318° |
| 2026-04-22 22:57 | 50.87394 | 7.13242 | 232 ft | 15 kts | 317° |
| 2026-04-22 22:57 | 50.87470 | 7.13132 | 231 ft | 14 kts | 317° |
| 2026-04-22 22:57 | 50.87541 | 7.13028 | 230 ft | 14 kts | 317° |
| 2026-04-22 22:57 | 50.87611 | 7.12927 | 229 ft | 13 kts | 317° |
| 2026-04-22 22:58 | 50.87677 | 7.12830 | 229 ft | 13 kts | 317° |
| 2026-04-22 22:58 | 50.87741 | 7.12736 | 229 ft | 12 kts | 318° |
| 2026-04-22 22:58 | 50.87794 | 7.12662 | 229 ft | 8 kts | 318° |
| 2026-04-22 22:58 | 50.87842 | 7.12620 | 229 ft | 8 kts | 343° |
| 2026-04-22 22:59 | 50.87896 | 7.12610 | 229 ft | 8 kts | 354° |
| 2026-04-22 22:59 | 50.87946 | 7.12573 | 229 ft | 9 kts | 321° |
| 2026-04-22 22:59 | 50.88006 | 7.12489 | 229 ft | 14 kts | 316° |
| 2026-04-22 22:59 | 50.88073 | 7.12374 | 230 ft | 14 kts | 308° |
| 2026-04-22 23:00 | 50.88114 | 7.12239 | 230 ft | 13 kts | 302° |
| 2026-04-22 23:00 | 50.88165 | 7.12123 | 229 ft | 12 kts | 304° |
| 2026-04-22 23:00 | 50.88200 | 7.12049 | 229 ft | 5 kts | 307° |
| 2026-04-22 23:00 | 50.88213 | 7.12003 | 229 ft | 5 kts | 256° |
| 2026-04-22 23:01 | 50.88194 | 7.11974 | 229 ft | 3 kts | 218° |
| 2026-04-22 23:01 | 50.88177 | 7.11953 | 231 ft | 3 kts | 216° |
| 2026-04-22 23:01 | 50.88172 | 7.11948 | 230 ft | 0 kts | 216° |